Fort Mill, SC (29715)

10:17 AM EDT on October 22, 2014 (GMT -0400)
Walter Elisha Park Area | Change Station
CLOSE
Current Station
Personal Weather Station
Location: Fort Mill, SC
Elevation: 656 ft
Nearby Weather Stations

Elev 656 ft 35.01 °N, 80.95 °W | Updated 2 minutes ago

Clear
Clear
53.6 °F
Feels Like 53.6 °F
N
3.1
Wind Variable Wind from SE
Gusts 10.7 mph

Today
High -- | Low -- °F
--% Chance of Precip.
Yesterday
High -- | Low -- °F
Precip. -- in
7:35 AM 6:40 PM
Waning Crescent, 2% visible
Pressure 30.07 in
Visibility 10.0 miles
Clouds Clear
Dew Point 37 °F
Humidity 53%
Rainfall 0.00 in
Snow Depth Not available.
UV 2 out of 12
Pollen 3.10 out of 12
Ozone Good
Flu Activity Sporadic
METAR KUZA 221354Z AUTO 01016G21KT 10SM CLR 13/04 A3008 RMK AO2 SLP181 T01280044

More Conditions Fewer Conditions

Pressure 30.07 in
Visibility 10.0 miles
Clouds Clear
Dew Point 37 °F
Humidity 53%
Rainfall 0.00 in
Snow Depth Not available.
UV 2 out of 12
Pollen 3.10 out of 12
Ozone Good
Flu Activity Sporadic
METAR KUZA 221354Z AUTO 01016G21KT 10SM CLR 13/04 A3008 RMK AO2 SLP181 T01280044

More Conditions Fewer Conditions

10-Day Weather Forecast

Almanac

Astronomy

Oct. 22, 2014 Rise Set
Actual Time 7:35 AM EDT 6:40 PM EDT
Civil Twilight 7:09 AM EDT 7:05 PM EDT
Nautical Twilight 6:40 AM EDT 7:35 PM EDT
Astronomical Twilight 6:11 AM EDT 8:04 PM EDT
Moon 6:18 AM EDT 6:04 PM EDT
Length of Visible Light 11h 55m
Length of Day
11h 04m
Tomorrow will be 2m 2s shorter.
Waning Crescent, 2% of the Moon is Illuminated
Today
Waning Crescent
Oct 23
New
Oct 30
First Quarter
Nov 6
Full
Nov 14
Last Quarter

Today's Extremes

State Highs State Lows

Community

WunderPhotos

Upload Photos

1,763,927 photos uploaded!

WunderBlogs® & News

Nearby

Air Quality

  Air Quality AQ Index Pollutant
Yesterday Good
OZONE
Current Good
OZONE

Snow Depth

Station Depth Elevation
No new snow has been reported.

Earthquake Activity

City Distance Mag. Time & Date
No recent earthquake activity has been reported nearby.
Minimum magnitude displayed is 2.5.

Coastal Water Temperatures

Place Temperature
No Stations Reporting

Nearby Weather Stations